Chlef Aboubakr Belkaid International Airport

DAOI · Chlef, 阿尔及利亚

罗盘
风向 的 风向 240° Ech Cheliff Airport 7/25
风: 10 kt, 3 beaufort

10 kt

1 kt
改变
0 ft 1.000 2.000 3.000 4.000 5.000
Cloud Cloud
FEW 2.500
METAR DAOI 041700Z 24010KT 9999 FEW025 17/09 Q1020

METAR Ech Cheliff Airport - DAOI/CFK

Ech Cheliff Airport是,阿尔及利亚中的中型机场。 该机场位于纬度36,21256和经度1,33154。 该机场有一条跑道: 7/25. 本场的ICAO机场代码为DAOI。 该机场的IATA代码为CFK。 机场在Alger FIR中。

该航空气象观测是针对Ech Cheliff Airport在2024年3月4日 18:00, 当地时间进行的。

机场观察

风向为240°,速度为10 kt。

可见度为10 km 或者更多。

有几云在2.500 ft的高度。 没有观察到天花板。

温度和风寒是17 °C。 露点为9 °C,相对湿度为59%。 海平面上的气压为1020 hPa (QNH)。

白天

今天,太阳从07:20升起,在18:52降落。 这适用于Ech Cheliff Airport,世界夏令时可能有所不同。 当地时间与世界标准时间之间的时差为+1 小时。 当前,没有夏令时有效。

公司介绍

我们没有关于这个机场的公司信息。

体会

到Vliegles.nl去找飞行课程,跳伞和其他飞行体验。 浏览页面,了解Ech Cheliff Airport附近所有可用的活动。 你也可以使用搜索功能来寻找你所在地附近的特定飞行课程、跳伞或其他飞行体验。

跑道

Id 标题 侧风 逆风 侧风 %
7/25 066°-246° 1 kt 10 kt 10 %

逆风成分最大的方向会被突出显示,并用于横风计算。 这并不一定意味着这个方向在使用。

乌云

2.500 ft FEW 几云

温度 & 天气

温度 17 °C
露点 9 °C
相对湿度 59%
Kp-index 1 (0-9)

白天

日出
07:20 (12:18)
中午
13:06
日落
18:52

小工具

你想在你的网站上有一个关于Ech Cheliff Airport的当前航空天气(METAR)的小部件吗?

显示HTML代码
?>